Time;durP1;ratioP1;P1;durP2;ratioP2;P2;SDS_P1;SDS_P2;PMS_P1;PMS_P2;Temp;Humidity;BMP_temperature;BMP_pressure;BME280_temperature;BME280_humidity;BME280_pressure;Samples;Min_cycle;Max_cycle;Signal;HPM_P1;HPM_P2
2022/02/20 00:01:53;;;;;;;47.78;19.75;;;;;;;-0.80;55.07;97135.05;1782230;79;27343;-87
2022/02/20 00:04:20;;;;;;;47.70;20.62;;;;;;;-0.79;55.22;97139.38;1781756;77;26551;-85
2022/02/20 00:06:46;;;;;;;76.05;25.12;;;;;;;-0.78;55.24;97131.77;1782652;79;25662;-85
2022/02/20 00:09:13;;;;;;;45.00;18.37;;;;;;;-0.78;55.27;97132.60;1782694;79;26377;-85
2022/02/20 00:11:40;;;;;;;31.55;15.28;;;;;;;-0.74;55.32;97133.98;1782682;79;25708;-86
2022/02/20 00:14:06;;;;;;;33.42;15.95;;;;;;;-0.79;55.28;97132.75;1782681;79;27604;-85
2022/02/20 00:16:33;;;;;;;35.85;14.35;;;;;;;-0.80;55.46;97136.38;1782104;79;25737;-86
2022/02/20 00:18:59;;;;;;;39.63;14.85;;;;;;;-0.84;55.43;97131.02;1802307;77;25933;-85
2022/02/20 00:21:26;;;;;;;37.45;14.73;;;;;;;-0.82;55.47;97136.52;1782584;79;26294;-87
2022/02/20 00:23:52;;;;;;;40.78;16.00;;;;;;;-0.83;55.55;97132.69;1782294;77;25874;-87
2022/02/20 00:26:19;;;;;;;33.92;15.80;;;;;;;-0.85;55.58;97139.48;1781784;78;27496;-84
2022/02/20 00:28:46;;;;;;;53.98;18.27;;;;;;;-0.85;55.66;97136.84;1782493;79;25764;-88
2022/02/20 00:31:12;;;;;;;57.93;19.52;;;;;;;-0.84;55.70;97137.64;1782675;79;26395;-88
2022/02/20 00:33:39;;;;;;;38.33;15.45;;;;;;;-0.84;55.73;97142.45;1781515;79;26313;-87
2022/02/20 00:36:05;;;;;;;37.60;15.63;;;;;;;-0.88;55.63;97134.96;1797833;77;25787;-82
2022/02/20 00:38:32;;;;;;;41.08;16.27;;;;;;;-0.92;55.83;97137.06;1782532;77;27563;-87
2022/02/20 00:40:59;;;;;;;111.35;30.70;;;;;;;-0.93;55.87;97124.79;1782654;79;26077;-87
2022/02/20 00:43:25;;;;;;;143.50;36.25;;;;;;;-0.90;55.97;97128.97;1782732;79;25689;-88
2022/02/20 00:45:52;;;;;;;146.13;37.83;;;;;;;-0.96;56.02;97128.22;1782953;79;25740;-88
2022/02/20 00:48:20;;;;;;;114.70;30.10;;;;;;;-0.99;56.09;97127.20;1782727;77;25985;-85
2022/02/20 00:50:48;;;;;;;55.05;19.35;;;;;;;-1.02;56.16;97126.16;1782519;79;27166;-87
2022/02/20 00:53:15;;;;;;;38.40;15.72;;;;;;;-1.03;56.11;97123.17;1781724;79;25811;-87
2022/02/20 00:55:42;;;;;;;29.10;13.08;;;;;;;-1.11;56.23;97118.13;1783133;79;25712;-88
2022/02/20 00:58:08;;;;;;;42.88;14.45;;;;;;;-1.15;56.30;97116.73;1782529;79;25523;-83
2022/02/20 01:00:36;;;;;;;47.40;16.20;;;;;;;-1.12;56.40;97117.78;1782734;79;25626;-85
2022/02/20 01:03:06;;;;;;;57.27;18.70;;;;;;;-1.18;56.43;97107.75;1783793;79;27202;-86
2022/02/20 01:05:32;;;;;;;74.22;20.35;;;;;;;-1.21;56.61;97102.73;1782500;79;25786;-85
2022/02/20 01:07:59;;;;;;;53.60;18.20;;;;;;;-1.22;56.67;97109.04;1789628;79;25828;-85
2022/02/20 01:10:25;;;;;;;56.95;18.90;;;;;;;-1.27;56.70;97109.95;1782243;79;25729;-85
2022/02/20 01:12:52;;;;;;;82.97;26.80;;;;;;;-1.27;56.89;97107.30;1782941;77;25761;-85
2022/02/20 01:15:18;;;;;;;130.50;42.40;;;;;;;-1.29;56.96;97097.83;1782204;79;28005;-84
2022/02/20 01:17:45;;;;;;;81.92;26.70;;;;;;;-1.31;57.02;97092.67;1782658;79;25941;-86
2022/02/20 01:20:12;;;;;;;74.42;26.17;;;;;;;-1.33;57.08;97084.06;1782582;79;26145;-86
2022/02/20 01:22:39;;;;;;;58.70;19.77;;;;;;;-1.38;57.08;97079.69;1781820;79;25723;-86
2022/02/20 01:25:06;;;;;;;69.77;22.37;;;;;;;-1.42;57.14;97079.63;1794164;77;25769;-86
2022/02/20 01:27:32;;;;;;;81.05;22.15;;;;;;;-1.45;57.27;97074.64;1782252;79;27466;-83
2022/02/20 01:29:59;;;;;;;53.45;16.97;;;;;;;-1.48;57.38;97073.11;1797466;77;25665;-85
2022/02/20 01:32:26;;;;;;;48.68;15.30;;;;;;;-1.49;57.44;97065.31;1782568;79;25857;-86
2022/02/20 01:34:52;;;;;;;38.53;12.80;;;;;;;-1.50;57.48;97064.96;1782136;79;25705;-87
2022/02/20 01:37:19;;;;;;;31.97;11.83;;;;;;;-1.49;57.52;97070.60;1781588;79;25795;-86
2022/02/20 01:39:46;;;;;;;37.88;12.82;;;;;;;-1.50;57.55;97065.80;1790536;79;27508;-86
2022/02/20 01:42:12;;;;;;;29.65;12.13;;;;;;;-1.51;57.65;97063.29;1787451;79;25954;-87
2022/02/20 01:44:39;;;;;;;34.53;12.75;;;;;;;-1.59;57.73;97059.22;1783018;77;25763;-86
2022/02/20 01:47:09;;;;;;;32.03;12.95;;;;;;;-1.57;57.86;97064.69;1788487;79;25786;-87
2022/02/20 01:49:36;;;;;;;45.10;15.00;;;;;;;-1.62;57.92;97051.56;1783571;77;25788;-86
2022/02/20 01:52:05;;;;;;;35.17;12.90;;;;;;;-1.66;58.01;97051.00;1788247;79;27580;-87
2022/02/20 01:54:31;;;;;;;52.13;18.02;;;;;;;-1.65;57.97;97052.67;1796559;77;25713;-87
2022/02/20 01:56:59;;;;;;;53.58;17.12;;;;;;;-1.68;58.17;97044.18;1787860;79;25717;-84
2022/02/20 01:59:26;;;;;;;36.05;13.48;;;;;;;-1.74;58.13;97050.06;1794319;77;26546;-87
2022/02/20 02:01:55;;;;;;;37.28;13.65;;;;;;;-1.78;58.26;97036.77;1790339;77;25804;-85
2022/02/20 02:04:22;;;;;;;69.87;19.57;;;;;;;-1.78;58.34;97036.77;1790232;77;28252;-85
2022/02/20 02:06:49;;;;;;;80.07;20.55;;;;;;;-1.77;58.45;97038.44;1795493;77;25839;-87
2022/02/20 02:09:18;;;;;;;78.02;20.57;;;;;;;-1.81;58.52;97031.27;1787680;79;26457;-88
2022/02/20 02:11:47;;;;;;;57.13;17.25;;;;;;;-1.84;58.59;97032.41;1781984;79;26334;-87
2022/02/20 02:14:14;;;;;;;51.70;16.23;;;;;;;-1.90;58.71;97026.84;1787846;79;25404;-86
2022/02/20 02:16:40;;;;;;;38.58;12.25;;;;;;;-1.91;58.79;97019.39;1790656;79;27634;-88
2022/02/20 02:19:07;;;;;;;37.08;13.25;;;;;;;-1.90;58.87;97022.39;1800310;77;26093;-88
2022/02/20 02:21:34;;;;;;;41.18;14.20;;;;;;;-1.94;58.94;97015.73;1796885;79;25666;-88
2022/02/20 02:24:01;;;;;;;30.57;12.03;;;;;;;-1.93;58.88;97016.05;1795304;77;25882;-88
2022/02/20 02:26:28;;;;;;;31.93;12.47;;;;;;;-1.96;58.89;97009.75;1806689;78;25776;-88
2022/02/20 02:28:54;;;;;;;29.80;11.90;;;;;;;-1.98;58.88;97009.05;1799783;77;27468;-85
2022/02/20 02:31:21;;;;;;;30.43;11.40;;;;;;;-2.01;59.10;97001.39;1803283;77;25945;-86
2022/02/20 02:33:50;;;;;;;24.45;9.35;;;;;;;-2.01;59.07;97004.04;1790833;78;25641;-86
2022/02/20 02:36:16;;;;;;;22.10;10.32;;;;;;;-2.01;59.20;97002.72;1724329;81;25722;-88
2022/02/20 02:38:43;;;;;;;24.18;10.90;;;;;;;-2.07;59.30;96991.41;1741941;80;25633;-87
2022/02/20 02:41:10;;;;;;;21.68;10.32;;;;;;;-2.08;59.46;96995.02;1767962;80;27492;-88
2022/02/20 02:43:39;;;;;;;25.37;11.03;;;;;;;-2.08;59.45;97002.96;1759761;79;25280;-88
2022/02/20 02:46:07;;;;;;;36.08;14.15;;;;;;;-2.18;59.54;96994.22;1759935;79;25304;-85
2022/02/20 02:48:35;;;;;;;30.97;11.83;;;;;;;-2.22;59.47;96994.98;1769251;79;26387;-83
2022/02/20 02:51:02;;;;;;;38.13;13.22;;;;;;;-2.27;59.54;96995.88;1773759;79;25757;-82
2022/02/20 02:53:30;;;;;;;28.20;9.88;;;;;;;-2.31;59.73;96989.72;1722791;81;28300;-81
2022/02/20 02:55:57;;;;;;;21.55;8.70;;;;;;;-2.32;59.82;96992.02;1722597;81;25725;-81
2022/02/20 02:58:26;;;;;;;25.55;11.75;;;;;;;-2.37;59.89;96988.95;1746421;80;25798;-80
2022/02/20 03:00:54;;;;;;;23.38;10.15;;;;;;;-2.45;60.04;96983.55;1763770;79;25742;-87
2022/02/20 03:03:21;;;;;;;21.80;9.68;;;;;;;-2.42;60.26;96979.30;1727792;81;25807;-81
2022/02/20 03:05:49;;;;;;;25.30;10.18;;;;;;;-2.44;60.29;96982.56;1746952;80;27034;-88
2022/02/20 03:08:15;;;;;;;17.77;9.28;;;;;;;-2.50;60.35;96971.22;1726014;81;25947;-81
2022/02/20 03:10:42;;;;;;;22.80;9.58;;;;;;;-2.51;60.49;96961.63;1781843;79;25711;-81
2022/02/20 03:13:08;;;;;;;30.88;12.68;;;;;;;-2.47;60.67;96957.73;1758804;80;25673;-81
2022/02/20 03:15:35;;;;;;;32.48;12.30;;;;;;;-2.48;60.64;96950.30;1763187;79;25709;-81
2022/02/20 03:18:01;;;;;;;24.70;9.83;;;;;;;-2.48;60.76;96949.45;1762957;79;27390;-83
2022/02/20 03:20:28;;;;;;;26.90;13.18;;;;;;;-2.47;60.83;96946.67;1756581;79;25737;-82
2022/02/20 03:22:55;;;;;;;68.95;20.90;;;;;;;-2.44;60.86;96940.28;1776608;79;25708;-87
2022/02/20 03:25:21;;;;;;;87.33;26.62;;;;;;;-2.37;60.87;96936.08;1756430;80;25728;-87
2022/02/20 03:27:48;;;;;;;68.85;20.85;;;;;;;-2.34;60.86;96943.73;1792126;79;25219;-87
2022/02/20 03:30:14;;;;;;;48.60;19.77;;;;;;;-2.41;60.86;96930.72;1797905;79;27552;-81
2022/02/20 03:32:41;;;;;;;49.60;18.75;;;;;;;-2.41;61.00;96930.72;1783449;79;25766;-88
2022/02/20 03:35:08;;;;;;;38.02;15.40;;;;;;;-2.41;61.13;96929.40;1797427;77;25691;-82
2022/02/20 03:37:35;;;;;;;35.00;12.75;;;;;;;-2.47;61.12;96922.05;1811676;77;25686;-82
2022/02/20 03:40:02;;;;;;;29.20;12.35;;;;;;;-2.44;61.23;96924.42;1795962;79;25698;-88
2022/02/20 03:42:29;;;;;;;28.17;12.47;;;;;;;-2.44;61.26;96912.53;1783088;79;27430;-81
2022/02/20 03:44:56;;;;;;;30.68;12.90;;;;;;;-2.42;61.24;96910.58;1795608;79;25795;-88
2022/02/20 03:47:22;;;;;;;32.88;12.65;;;;;;;-2.38;61.47;96910.62;1788999;79;25725;-81
2022/02/20 03:49:49;;;;;;;30.92;12.80;;;;;;;-2.42;61.46;96905.30;1788544;79;25887;-88
2022/02/20 03:52:15;;;;;;;34.67;12.65;;;;;;;-2.44;61.42;96903.28;1783529;79;25797;-88
2022/02/20 03:54:42;;;;;;;31.45;12.23;;;;;;;-2.39;61.40;96904.50;1785259;79;27523;-83
2022/02/20 03:57:09;;;;;;;29.35;11.90;;;;;;;-2.35;61.43;96903.73;1801728;77;25840;-83
2022/02/20 03:59:35;;;;;;;29.27;12.37;;;;;;;-2.36;61.42;96896.29;1783338;79;25720;-80
2022/02/20 04:02:02;;;;;;;37.35;15.08;;;;;;;-2.36;61.45;96899.42;1802642;77;25881;-87
2022/02/20 04:04:29;;;;;;;46.37;17.35;;;;;;;-2.34;61.52;96906.72;1786169;79;25238;-84
2022/02/20 04:06:55;;;;;;;42.85;16.37;;;;;;;-2.36;61.49;96904.70;1805465;77;27372;-88
2022/02/20 04:09:22;;;;;;;43.10;18.10;;;;;;;-2.45;61.43;96898.97;1788483;77;25832;-86
2022/02/20 04:11:49;;;;;;;26.57;10.85;;;;;;;-2.45;61.68;96902.93;1798087;77;25248;-83
2022/02/20 04:14:15;;;;;;;25.05;11.43;;;;;;;-2.50;61.68;96892.77;1783817;77;26566;-86
2022/02/20 04:16:42;;;;;;;30.02;11.78;;;;;;;-2.47;61.77;96886.38;1801139;78;25314;-83
2022/02/20 04:19:09;;;;;;;28.38;12.80;;;;;;;-2.39;61.80;96886.48;1806748;79;27398;-87
2022/02/20 04:21:36;;;;;;;24.98;11.50;;;;;;;-2.36;61.82;96882.23;1785808;77;25227;-85
2022/02/20 04:24:03;;;;;;;23.87;11.10;;;;;;;-2.42;61.76;96877.55;1804727;78;25231;-84
2022/02/20 04:26:30;;;;;;;24.72;10.00;;;;;;;-2.43;61.92;96867.95;1785796;78;25679;-87
2022/02/20 04:28:56;;;;;;;24.95;10.20;;;;;;;-2.49;61.96;96861.89;1804889;77;25671;-81
2022/02/20 04:31:23;;;;;;;30.95;13.95;;;;;;;-2.46;62.17;96860.30;1800811;77;28438;-82
2022/02/20 04:33:49;;;;;;;40.30;16.50;;;;;;;-2.45;62.37;96853.55;1782312;79;25297;-88
2022/02/20 04:36:16;;;;;;;32.63;13.55;;;;;;;-2.46;62.28;96845.76;1782769;79;25822;-81
2022/02/20 04:38:43;;;;;;;28.55;12.50;;;;;;;-2.44;62.38;96845.13;1778018;79;26527;-88
2022/02/20 04:41:09;;;;;;;24.82;12.37;;;;;;;-2.43;62.56;96838.38;1813824;77;25774;-82
2022/02/20 04:43:36;;;;;;;27.25;12.80;;;;;;;-2.43;62.54;96830.94;1800471;77;27567;-85
2022/02/20 04:46:03;;;;;;;30.37;12.07;;;;;;;-2.38;62.62;96827.36;1802454;77;25731;-88
2022/02/20 04:48:30;;;;;;;25.52;12.03;;;;;;;-2.33;62.60;96825.95;1798191;77;25717;-88
2022/02/20 04:50:56;;;;;;;21.90;10.10;;;;;;;-2.29;62.73;96815.90;1790271;77;26325;-84
2022/02/20 04:53:23;;;;;;;24.75;12.13;;;;;;;-2.31;62.69;96819.20;1783974;78;25647;-82
2022/02/20 04:55:50;;;;;;;23.80;10.95;;;;;;;-2.29;62.74;96811.94;1804572;79;27505;-85
2022/02/20 04:58:16;;;;;;;47.25;15.05;;;;;;;-2.29;62.80;96802.69;1797987;77;25725;-89
2022/02/20 05:00:43;;;;;;;25.05;11.05;;;;;;;-2.24;62.93;96807.05;1788770;77;25696;-89
2022/02/20 05:03:09;;;;;;;26.85;11.75;;;;;;;-2.26;62.96;96807.20;1783036;79;25723;-87
2022/02/20 05:05:37;;;;;;;29.57;13.32;;;;;;;-2.25;63.06;96810.67;1788691;79;25905;-83
2022/02/20 05:08:06;;;;;;;39.00;17.75;;;;;;;-2.22;63.02;96805.94;1810598;77;27654;-88
2022/02/20 05:10:32;;;;;;;36.65;16.75;;;;;;;-2.19;63.06;96806.14;1782808;79;25721;-87
2022/02/20 05:12:59;;;;;;;45.08;20.60;;;;;;;-2.17;63.09;96806.80;1789926;79;25711;-89
2022/02/20 05:15:26;;;;;;;42.23;20.27;;;;;;;-2.17;63.04;96806.80;1789882;78;26250;-88
2022/02/20 05:17:52;;;;;;;41.90;18.73;;;;;;;-2.15;63.11;96800.05;1793584;79;25775;-82
2022/02/20 05:20:19;;;;;;;39.78;18.80;;;;;;;-2.14;63.23;96790.64;1783814;79;27188;-89
2022/02/20 05:22:46;;;;;;;38.13;17.35;;;;;;;-2.11;63.31;96770.53;1782767;79;25753;-89
2022/02/20 05:25:13;;;;;;;35.28;17.35;;;;;;;-2.12;63.33;96767.53;1787526;79;25674;-86
2022/02/20 05:27:44;;;;;;;44.90;18.87;;;;;;;-2.09;63.40;96766.41;1795652;77;26179;-84
2022/02/20 05:30:15;;;;;;;59.03;26.42;;;;;;;-2.08;63.39;96767.59;1789776;78;25786;-88
2022/02/20 05:32:41;;;;;;;64.80;28.12;;;;;;;-2.03;63.25;96770.60;1816257;77;27529;-90
2022/02/20 05:35:08;;;;;;;68.35;28.95;;;;;;;-1.97;63.37;96777.13;1803178;77;25267;-86
2022/02/20 05:37:48;;;;;;;62.38;29.23;;;;;;;-1.92;63.40;96776.17;1803104;77;25973;-84
2022/02/20 05:40:19;;;;;;;64.07;30.72;;;;;;;-1.92;63.35;96767.75;1809204;78;26406;-88
2022/02/20 05:42:46;;;;;;;68.67;31.00;;;;;;;-1.86;63.38;96763.69;1790795;78;25752;-86
2022/02/20 05:45:13;;;;;;;42.78;20.77;;;;;;;-1.84;63.45;96757.76;1804459;77;27354;-86
2022/02/20 05:47:40;;;;;;;50.20;20.88;;;;;;;-1.83;63.47;96751.48;1796211;77;25820;-87
2022/02/20 05:50:09;;;;;;;32.08;15.88;;;;;;;-1.79;63.48;96736.95;1804614;77;25223;-90
2022/02/20 05:52:36;;;;;;;35.90;15.20;;;;;;;-1.75;63.38;96724.27;1804415;78;25745;-88
2022/02/20 05:55:04;;;;;;;49.13;18.62;;;;;;;-1.71;63.33;96711.08;1791240;78;25197;-90
2022/02/20 05:57:45;;;;;;;43.20;18.23;;;;;;;-1.66;63.28;96706.98;1804549;78;27433;-87
2022/02/20 06:00:14;;;;;;;39.55;16.85;;;;;;;-1.60;63.36;96716.14;1813898;77;25297;-90
2022/02/20 06:02:41;;;;;;;36.05;17.62;;;;;;;-1.52;63.25;96705.60;1801139;78;25255;-90
2022/02/20 06:05:09;;;;;;;35.23;15.50;;;;;;;-1.45;63.33;96714.61;1794049;77;25946;-87
2022/02/20 06:07:35;;;;;;;27.32;14.18;;;;;;;-1.42;63.15;96707.66;1800250;77;25797;-90
2022/02/20 06:10:02;;;;;;;37.75;15.23;;;;;;;-1.39;63.05;96711.33;1808068;77;27458;-89
2022/02/20 06:12:29;;;;;;;23.40;12.15;;;;;;;-1.33;63.09;96708.58;1790226;78;25739;-85
2022/02/20 06:14:56;;;;;;;29.25;13.75;;;;;;;-1.28;63.12;96707.60;1797608;78;25867;-82
2022/02/20 06:17:23;;;;;;;26.70;12.85;;;;;;;-1.27;63.06;96712.75;1803064;77;25736;-85
2022/02/20 06:19:50;;;;;;;24.27;11.40;;;;;;;-1.23;62.90;96711.95;1796740;77;25772;-84
2022/02/20 06:22:16;;;;;;;29.37;11.75;;;;;;;-1.21;63.00;96701.52;1770830;78;27645;-88
2022/02/20 06:24:43;;;;;;;22.87;10.68;;;;;;;-1.18;63.04;96710.48;1792017;78;25707;-89
2022/02/20 06:27:10;;;;;;;22.58;10.93;;;;;;;-1.11;63.26;96699.63;1800909;77;25822;-88
2022/02/20 06:29:37;;;;;;;14.18;7.62;;;;;;;-1.03;63.07;96696.67;1781725;79;26454;-89
2022/02/20 06:32:05;;;;;;;10.23;4.00;;;;;;;-0.93;62.52;96680.16;1787781;79;25653;-91
2022/02/20 06:34:32;;;;;;;10.03;3.02;;;;;;;-0.65;61.80;96677.66;1788022;77;27461;-90
2022/02/20 06:36:58;;;;;;;6.22;2.37;;;;;;;-0.36;61.18;96675.42;1785746;77;25765;-90
2022/02/20 06:39:26;;;;;;;9.70;3.30;;;;;;;-0.01;60.80;96665.58;1787507;77;25750;-87
2022/02/20 06:41:53;;;;;;;8.35;3.30;;;;;;;0.32;60.18;96664.61;1793553;77;26305;-91
2022/02/20 06:44:19;;;;;;;6.80;2.58;;;;;;;0.61;59.37;96662.75;1782292;79;25729;-90
2022/02/20 06:46:46;;;;;;;8.40;3.77;;;;;;;0.81;58.83;96656.60;1782811;79;27208;-87
2022/02/20 06:49:13;;;;;;;7.10;2.52;;;;;;;0.98;58.19;96658.20;1782740;79;25780;-84
2022/02/20 06:51:39;;;;;;;13.10;4.58;;;;;;;1.11;57.85;96655.52;1781339;79;25705;-90
2022/02/20 06:54:06;;;;;;;8.45;3.02;;;;;;;1.27;57.49;96650.16;1782271;79;25840;-89
2022/02/20 06:56:32;;;;;;;10.13;3.80;;;;;;;1.42;57.17;96649.77;1782471;79;25765;-90
2022/02/20 06:58:59;;;;;;;7.83;2.92;;;;;;;1.55;56.84;96648.72;1782574;79;28171;-89
2022/02/20 07:01:26;;;;;;;7.83;3.00;;;;;;;1.67;56.60;96651.82;1781210;77;25772;-89
2022/02/20 07:03:54;;;;;;;6.65;2.62;;;;;;;1.77;56.29;96644.44;1795533;77;25713;-85
2022/02/20 07:06:21;;;;;;;9.73;2.83;;;;;;;1.87;55.97;96648.20;1781490;79;26029;-89
2022/02/20 07:08:50;;;;;;;6.97;3.05;;;;;;;1.96;55.79;96649.80;1782615;79;25213;-87
2022/02/20 07:11:16;;;;;;;8.38;3.37;;;;;;;2.03;55.63;96646.78;1781709;77;27432;-84
2022/02/20 07:13:43;;;;;;;10.90;3.10;;;;;;;2.10;55.37;96639.73;1782054;79;25673;-83
2022/02/20 07:16:10;;;;;;;7.58;3.12;;;;;;;2.16;55.25;96647.03;1783519;79;25684;-84
2022/02/20 07:18:36;;;;;;;9.08;3.30;;;;;;;2.24;55.11;96644.30;1788568;77;26311;-86
2022/02/20 07:21:03;;;;;;;11.60;3.62;;;;;;;2.34;54.86;96654.20;1795898;78;25742;-88
2022/02/20 07:23:29;;;;;;;8.35;3.05;;;;;;;2.43;54.74;96650.45;1782792;79;28215;-88
2022/02/20 07:25:56;;;;;;;9.28;3.05;;;;;;;2.54;54.65;96658.02;1782474;79;25975;-87
2022/02/20 07:28:23;;;;;;;10.15;3.58;;;;;;;2.68;54.64;96674.23;1789362;78;25930;-88
2022/02/20 07:30:49;;;;;;;11.93;3.77;;;;;;;2.83;54.87;96653.78;1792592;78;26222;-87
2022/02/20 07:33:16;;;;;;;12.93;4.22;;;;;;;2.95;55.01;96666.98;1798646;78;26250;-86
2022/02/20 07:35:43;;;;;;;8.90;3.55;;;;;;;3.04;55.14;96657.89;1791889;78;27379;-86
2022/02/20 07:38:10;;;;;;;8.50;3.15;;;;;;;3.12;55.41;96668.49;1791573;78;25387;-84
2022/02/20 07:40:36;;;;;;;10.88;4.30;;;;;;;3.17;56.13;96675.42;1790735;78;25740;-85
2022/02/20 07:43:03;;;;;;;5.78;2.72;;;;;;;3.19;56.32;96686.73;1791925;78;26293;-87
2022/02/20 07:45:29;;;;;;;15.13;3.35;;;;;;;3.19;56.88;96695.24;1791583;78;25797;-86
2022/02/20 07:48:00;;;;;;;8.48;2.58;;;;;;;3.13;57.53;96688.81;1794735;78;27525;-84
2022/02/20 07:50:31;;;;;;;7.20;3.10;;;;;;;3.06;58.83;96690.54;1791108;78;25749;-85
2022/02/20 07:52:59;;;;;;;7.25;2.92;;;;;;;3.00;59.16;96705.95;1791094;78;25773;-89
2022/02/20 07:55:27;;;;;;;7.72;3.25;;;;;;;2.92;59.79;96695.33;1792074;78;25740;-84
2022/02/20 07:57:54;;;;;;;8.65;3.08;;;;;;;2.82;60.28;96698.77;1792425;78;25784;-88
2022/02/20 08:00:28;;;;;;;15.65;6.25;;;;;;;2.76;60.96;96717.66;1791626;78;27398;-85
2022/02/20 08:02:51;;;;;;;20.92;7.37;;;;;;;2.71;61.59;96700.53;1791047;78;25765;-88
2022/02/20 08:05:18;;;;;;;14.03;5.65;;;;;;;2.70;61.65;96698.87;1791877;78;25823;-85
2022/02/20 08:07:45;;;;;;;12.23;4.53;;;;;;;2.68;62.00;96704.88;1797993;78;25749;-86
2022/02/20 08:10:12;;;;;;;9.55;4.15;;;;;;;2.71;62.27;96707.19;1801416;78;26141;-86
2022/02/20 08:12:38;;;;;;;10.00;4.47;;;;;;;2.73;62.41;96699.84;1756676;79;28145;-87
2022/02/20 08:15:06;;;;;;;9.98;5.80;;;;;;;2.71;62.67;96704.52;1722585;81;25854;-87
2022/02/20 08:17:33;;;;;;;12.53;5.87;;;;;;;2.67;63.29;96709.88;1748016;81;25781;-87
2022/02/20 08:19:59;;;;;;;12.18;6.35;;;;;;;2.70;63.31;96709.53;1727249;81;25876;-84
2022/02/20 08:22:26;;;;;;;22.07;9.33;;;;;;;2.71;63.78;96716.02;1738190;81;25691;-87
2022/02/20 08:24:52;;;;;;;16.12;7.62;;;;;;;2.72;63.78;96715.52;1753702;80;28191;-86
2022/02/20 08:27:19;;;;;;;15.28;7.53;;;;;;;2.74;64.27;96715.66;1750113;80;25889;-87
2022/02/20 08:29:46;;;;;;;13.55;7.15;;;;;;;2.70;64.24;96714.36;1735520;81;26373;-86
2022/02/20 08:32:12;;;;;;;10.88;6.60;;;;;;;2.65;64.50;96723.41;1735120;81;25931;-88
2022/02/20 08:34:39;;;;;;;13.53;7.12;;;;;;;2.62;64.34;96721.59;1740654;81;25690;-87
2022/02/20 08:37:05;;;;;;;16.90;8.35;;;;;;;2.58;65.02;96718.95;1736126;81;28333;-86
2022/02/20 08:39:32;;;;;;;15.23;7.15;;;;;;;2.59;65.12;96722.77;1744073;81;25673;-88
2022/02/20 08:41:59;;;;;;;15.05;7.72;;;;;;;2.61;65.33;96725.27;1735754;81;25765;-87
2022/02/20 08:44:25;;;;;;;17.67;7.75;;;;;;;2.64;65.60;96723.58;1737039;81;25717;-86
2022/02/20 08:46:52;;;;;;;15.10;7.47;;;;;;;2.62;65.57;96730.92;1736345;81;25457;-87
2022/02/20 08:49:18;;;;;;;11.00;5.30;;;;;;;2.59;65.73;96727.27;1734881;81;28286;-88
2022/02/20 08:51:45;;;;;;;16.40;7.87;;;;;;;2.59;65.94;96721.44;1735625;79;25773;-87
2022/02/20 08:54:12;;;;;;;17.12;7.50;;;;;;;2.60;65.66;96724.94;1735603;81;25732;-87
2022/02/20 08:56:38;;;;;;;18.32;7.47;;;;;;;2.52;65.51;96724.50;1735043;81;25801;-88
2022/02/20 08:59:05;;;;;;;12.18;7.05;;;;;;;2.50;66.16;96716.69;1735331;81;25820;-90
2022/02/20 09:01:31;;;;;;;10.25;6.00;;;;;;;2.49;66.38;96712.86;1741737;79;27419;-88
2022/02/20 09:04:02;;;;;;;8.88;6.08;;;;;;;2.49;66.32;96717.69;1735328;79;25795;-88
2022/02/20 09:06:26;;;;;;;7.92;4.58;;;;;;;2.56;66.69;96709.80;1735430;81;25780;-86
2022/02/20 09:08:53;;;;;;;9.90;5.37;;;;;;;2.68;66.54;96712.88;1736146;81;25661;-85
2022/02/20 09:11:20;;;;;;;16.87;8.03;;;;;;;2.75;66.73;96710.66;1735892;81;25740;-87
2022/02/20 09:13:47;;;;;;;19.10;10.00;;;;;;;2.79;66.54;96703.11;1735027;79;27547;-82
2022/02/20 09:16:14;;;;;;;13.28;6.87;;;;;;;2.81;66.32;96706.43;1736000;81;25763;-88
2022/02/20 09:18:40;;;;;;;10.75;6.40;;;;;;;2.80;66.58;96710.94;1735589;81;25814;-85
2022/02/20 09:21:08;;;;;;;15.83;6.87;;;;;;;2.82;66.70;96708.09;1734384;81;26432;-90
2022/02/20 09:23:35;;;;;;;12.53;6.90;;;;;;;2.82;66.61;96716.92;1735829;81;25826;-88
2022/02/20 09:26:02;;;;;;;13.53;7.83;;;;;;;2.86;66.61;96717.40;1735441;81;28017;-87
2022/02/20 09:28:29;;;;;;;12.70;6.15;;;;;;;2.87;66.44;96709.73;1730403;79;26026;-88
2022/02/20 09:30:55;;;;;;;11.65;5.62;;;;;;;2.87;66.56;96720.39;1782548;79;25266;-86
2022/02/20 09:33:22;;;;;;;15.63;6.85;;;;;;;2.86;66.62;96716.06;1782781;79;26412;-86
2022/02/20 09:35:49;;;;;;;12.93;6.08;;;;;;;2.81;66.88;96730.42;1782523;79;25271;-82
2022/02/20 09:38:16;;;;;;;12.65;5.35;;;;;;;2.75;66.83;96729.82;1782928;79;28684;-86
2022/02/20 09:40:44;;;;;;;5.28;3.20;;;;;;;2.70;67.08;96717.52;1781798;79;25739;-81
2022/02/20 09:43:15;;;;;;;6.65;3.37;;;;;;;2.64;67.03;96714.26;1783007;79;25769;-87
2022/02/20 09:45:51;;;;;;;12.65;5.20;;;;;;;2.54;67.32;96719.80;1782460;77;26490;-86
2022/02/20 09:48:18;;;;;;;7.08;3.20;;;;;;;2.52;67.94;96714.67;1783112;79;25271;-86
2022/02/20 09:50:46;;;;;;;9.55;5.20;;;;;;;2.54;67.65;96719.30;1782704;79;28167;-84
2022/02/20 09:53:14;;;;;;;9.80;4.05;;;;;;;2.57;67.96;96719.45;1782209;79;25769;-85
2022/02/20 09:55:45;;;;;;;9.20;4.53;;;;;;;2.61;67.94;96721.27;1782093;79;25314;-85
2022/02/20 09:58:14;;;;;;;8.83;4.47;;;;;;;2.60;68.42;96724.44;1782653;79;25726;-85
2022/02/20 10:00:58;;;;;;;10.98;5.67;;;;;;;2.61;68.20;96724.76;1783027;79;25516;-85
2022/02/20 10:03:30;;;;;;;10.45;4.35;;;;;;;2.61;68.42;96727.93;1786690;77;28104;-81
2022/02/20 10:05:59;;;;;;;11.43;5.40;;;;;;;2.63;68.64;96730.75;1781496;79;26367;-88
2022/02/20 10:08:25;;;;;;;17.52;7.60;;;;;;;2.62;68.87;96720.27;1787236;79;25773;-87
2022/02/20 10:10:52;;;;;;;15.95;6.58;;;;;;;2.65;68.92;96729.23;1782758;79;25726;-83
2022/02/20 10:13:26;;;;;;;12.28;6.15;;;;;;;2.67;68.85;96717.88;1781895;79;25809;-86
2022/02/20 10:15:54;;;;;;;10.38;4.55;;;;;;;2.66;68.87;96732.20;1783178;77;27363;-87
2022/02/20 10:18:25;;;;;;;12.68;5.28;;;;;;;2.67;69.18;96728.03;1782823;77;25776;-91
2022/02/20 10:21:03;;;;;;;17.85;6.97;;;;;;;2.65;69.01;96728.73;1781894;79;25773;-89
2022/02/20 10:23:40;;;;;;;13.05;6.20;;;;;;;2.64;69.16;96722.25;1782825;79;25818;-88
2022/02/20 10:26:19;;;;;;;16.20;7.85;;;;;;;2.64;69.28;96719.08;1792066;79;25707;-88
2022/02/20 10:29:08;;;;;;;17.35;9.28;;;;;;;2.64;69.32;96720.92;1786598;78;27356;-92
2022/02/20 10:31:51;;;;;;;13.93;7.28;;;;;;;2.63;69.32;96724.59;1790392;78;25909;-90
2022/02/20 10:34:23;;;;;;;14.20;7.22;;;;;;;2.63;69.53;96727.25;1799119;78;25799;-91
2022/02/20 10:37:05;;;;;;;15.85;7.55;;;;;;;2.65;69.71;96730.57;1805833;77;25815;-89
2022/02/20 10:39:40;;;;;;;12.78;8.05;;;;;;;2.70;69.71;96718.85;1807844;77;25268;-83
2022/02/20 10:42:16;;;;;;;16.05;9.30;;;;;;;2.76;69.89;96719.48;1750193;80;27401;-89
2022/02/20 10:45:02;;;;;;;23.62;11.18;;;;;;;2.81;70.03;96730.42;1753748;80;25773;-88
2022/02/20 10:47:31;;;;;;;13.93;6.90;;;;;;;2.85;70.21;96721.06;1728523;80;25299;-85
2022/02/20 10:50:21;;;;;;;6.75;3.60;;;;;;;2.88;69.91;96728.72;1719281;81;25722;-89
2022/02/20 10:53:07;;;;;;;16.35;6.92;;;;;;;2.84;69.86;96735.41;1720320;81;25686;-90
2022/02/20 10:55:44;;;;;;;17.40;8.28;;;;;;;2.81;70.10;96725.09;1718839;81;27427;-86
2022/02/20 10:58:21;;;;;;;12.70;6.60;;;;;;;2.79;70.12;96728.44;1727861;81;25730;-88
2022/02/20 11:00:55;;;;;;;18.70;9.58;;;;;;;2.78;70.37;96730.77;1713947;81;25354;-90
2022/02/20 11:03:24;;;;;;;27.98;15.88;;;;;;;2.78;70.52;96731.60;1725045;81;25768;-91
2022/02/20 11:05:53;;;;;;;16.37;8.50;;;;;;;2.80;70.80;96730.92;1734613;81;25802;-90
2022/02/20 11:08:22;;;;;;;11.60;5.97;;;;;;;2.82;70.66;96728.08;1734168;81;28141;-89
2022/02/20 11:10:50;;;;;;;40.58;19.15;;;;;;;2.83;70.62;96735.07;1734027;81;25828;-90
2022/02/20 11:13:18;;;;;;;25.72;12.75;;;;;;;2.83;70.83;96727.08;1734718;81;26388;-86
2022/02/20 11:15:48;;;;;;;20.55;10.40;;;;;;;2.86;70.81;96738.72;1734913;81;25682;-88
2022/02/20 11:18:19;;;;;;;16.17;8.88;;;;;;;2.89;70.76;96733.04;1747126;81;25677;-86
2022/02/20 11:20:49;;;;;;;14.07;8.10;;;;;;;2.94;70.85;96735.14;1758032;81;27366;-90
2022/02/20 11:23:26;;;;;;;29.02;13.50;;;;;;;2.93;70.96;96726.31;1749042;81;25726;-91
2022/02/20 11:25:55;;;;;;;19.80;10.65;;;;;;;2.94;71.13;96733.81;1756628;80;25817;-90
2022/02/20 11:28:22;;;;;;;37.23;19.12;;;;;;;2.97;71.20;96726.80;1744956;80;25799;-88